sensor_id;sensor_type;location;lat;lon;timestamp;temperature;humidity
39099;DHT22;24844;52.380;7.018;2022-10-31T00:00:41;14.50;99.90
39099;DHT22;24844;52.380;7.018;2022-10-31T00:03:06;14.60;99.90
39099;DHT22;24844;52.380;7.018;2022-10-31T00:05:32;14.60;99.90
39099;DHT22;24844;52.380;7.018;2022-10-31T00:07:57;14.60;99.90
39099;DHT22;24844;52.380;7.018;2022-10-31T00:10:23;14.60;99.90
39099;DHT22;24844;52.380;7.018;2022-10-31T00:12:48;14.50;99.90
39099;DHT22;24844;52.380;7.018;2022-10-31T00:15:14;14.50;99.90
39099;DHT22;24844;52.380;7.018;2022-10-31T00:17:39;14.50;99.90
39099;DHT22;24844;52.380;7.018;2022-10-31T00:20:05;14.40;99.90
39099;DHT22;24844;52.380;7.018;2022-10-31T00:22:30;14.40;99.90
39099;DHT22;24844;52.380;7.018;2022-10-31T00:24:56;14.30;99.90
39099;DHT22;24844;52.380;7.018;2022-10-31T00:27:21;14.40;99.90
39099;DHT22;24844;52.380;7.018;2022-10-31T00:29:47;14.40;99.90
39099;DHT22;24844;52.380;7.018;2022-10-31T00:32:12;14.30;99.90
39099;DHT22;24844;52.380;7.018;2022-10-31T00:34:38;14.30;99.90
39099;DHT22;24844;52.380;7.018;2022-10-31T00:37:03;14.20;99.90
39099;DHT22;24844;52.380;7.018;2022-10-31T00:39:29;14.30;99.90
39099;DHT22;24844;52.380;7.018;2022-10-31T00:41:54;14.20;99.90
39099;DHT22;24844;52.380;7.018;2022-10-31T00:44:20;14.20;99.90
39099;DHT22;24844;52.380;7.018;2022-10-31T00:46:45;14.20;99.90
39099;DHT22;24844;52.380;7.018;2022-10-31T00:49:10;14.10;99.90
39099;DHT22;24844;52.380;7.018;2022-10-31T00:51:37;14.10;99.90
39099;DHT22;24844;52.380;7.018;2022-10-31T00:54:03;14.10;99.90
39099;DHT22;24844;52.380;7.018;2022-10-31T00:56:28;14.00;99.90
39099;DHT22;24844;52.380;7.018;2022-10-31T00:58:54;14.00;99.90
39099;DHT22;24844;52.380;7.018;2022-10-31T01:01:19;13.90;99.90
39099;DHT22;24844;52.380;7.018;2022-10-31T01:03:45;14.00;99.90
39099;DHT22;24844;52.380;7.018;2022-10-31T01:06:11;14.00;99.90
39099;DHT22;24844;52.380;7.018;2022-10-31T01:08:37;14.00;99.90
39099;DHT22;24844;52.380;7.018;2022-10-31T01:11:07;13.80;99.90
39099;DHT22;24844;52.380;7.018;2022-10-31T01:13:33;13.70;99.90
39099;DHT22;24844;52.380;7.018;2022-10-31T01:15:59;13.70;99.90
39099;DHT22;24844;52.380;7.018;2022-10-31T01:18:25;13.70;99.90
39099;DHT22;24844;52.380;7.018;2022-10-31T01:23:28;13.80;99.90
39099;DHT22;24844;52.380;7.018;2022-10-31T01:26:05;13.90;99.90
39099;DHT22;24844;52.380;7.018;2022-10-31T01:28:30;14.00;99.90
39099;DHT22;24844;52.380;7.018;2022-10-31T01:30:59;14.00;99.90
39099;DHT22;24844;52.380;7.018;2022-10-31T01:33:25;14.10;99.90
39099;DHT22;24844;52.380;7.018;2022-10-31T01:35:50;14.10;99.90
39099;DHT22;24844;52.380;7.018;2022-10-31T01:38:16;14.10;99.90
39099;DHT22;24844;52.380;7.018;2022-10-31T01:40:41;14.10;99.90
39099;DHT22;24844;52.380;7.018;2022-10-31T01:43:09;14.00;99.90
39099;DHT22;24844;52.380;7.018;2022-10-31T01:45:36;13.80;99.90
39099;DHT22;24844;52.380;7.018;2022-10-31T01:48:02;13.80;99.90
39099;DHT22;24844;52.380;7.018;2022-10-31T01:50:31;13.80;99.90
39099;DHT22;24844;52.380;7.018;2022-10-31T01:52:57;13.70;99.90
39099;DHT22;24844;52.380;7.018;2022-10-31T01:55:25;13.60;99.90
39099;DHT22;24844;52.380;7.018;2022-10-31T01:57:54;13.60;99.90
39099;DHT22;24844;52.380;7.018;2022-10-31T02:00:20;13.60;99.90
39099;DHT22;24844;52.380;7.018;2022-10-31T02:02:46;13.50;99.90
39099;DHT22;24844;52.380;7.018;2022-10-31T02:05:19;13.40;99.90
39099;DHT22;24844;52.380;7.018;2022-10-31T02:07:48;13.40;99.90
39099;DHT22;24844;52.380;7.018;2022-10-31T02:10:17;13.30;99.90
39099;DHT22;24844;52.380;7.018;2022-10-31T02:12:44;13.30;99.90
39099;DHT22;24844;52.380;7.018;2022-10-31T02:15:10;13.20;99.90
39099;DHT22;24844;52.380;7.018;2022-10-31T02:17:35;13.10;99.90
39099;DHT22;24844;52.380;7.018;2022-10-31T02:20:07;13.10;99.90
39099;DHT22;24844;52.380;7.018;2022-10-31T02:27:46;12.90;99.90
39099;DHT22;24844;52.380;7.018;2022-10-31T02:30:27;12.90;99.90
39099;DHT22;24844;52.380;7.018;2022-10-31T02:33:05;12.90;99.90
39099;DHT22;24844;52.380;7.018;2022-10-31T02:38:08;13.00;99.90
39099;DHT22;24844;52.380;7.018;2022-10-31T02:40:39;12.90;99.90
39099;DHT22;24844;52.380;7.018;2022-10-31T02:43:12;12.90;99.90
39099;DHT22;24844;52.380;7.018;2022-10-31T02:45:48;13.00;99.90
39099;DHT22;24844;52.380;7.018;2022-10-31T02:48:18;12.90;99.90
39099;DHT22;24844;52.380;7.018;2022-10-31T02:50:45;12.90;99.90
39099;DHT22;24844;52.380;7.018;2022-10-31T02:53:14;13.00;99.90
39099;DHT22;24844;52.380;7.018;2022-10-31T02:55:54;13.00;99.90
39099;DHT22;24844;52.380;7.018;2022-10-31T02:58:21;12.90;99.90
39099;DHT22;24844;52.380;7.018;2022-10-31T03:00:53;12.90;99.90
39099;DHT22;24844;52.380;7.018;2022-10-31T03:05:55;12.90;99.90
39099;DHT22;24844;52.380;7.018;2022-10-31T03:08:26;12.90;99.90
39099;DHT22;24844;52.380;7.018;2022-10-31T03:11:02;12.80;99.90
39099;DHT22;24844;52.380;7.018;2022-10-31T03:18:32;12.80;99.90
39099;DHT22;24844;52.380;7.018;2022-10-31T03:20:59;12.90;99.90
39099;DHT22;24844;52.380;7.018;2022-10-31T03:23:26;12.80;99.90
39099;DHT22;24844;52.380;7.018;2022-10-31T03:25:52;12.70;99.90
39099;DHT22;24844;52.380;7.018;2022-10-31T03:28:20;12.60;99.90
39099;DHT22;24844;52.380;7.018;2022-10-31T03:30:48;12.50;99.90
39099;DHT22;24844;52.380;7.018;2022-10-31T03:33:15;12.40;99.90
39099;DHT22;24844;52.380;7.018;2022-10-31T03:35:42;12.40;99.90
39099;DHT22;24844;52.380;7.018;2022-10-31T03:38:09;12.50;99.90
39099;DHT22;24844;52.380;7.018;2022-10-31T03:40:36;12.60;99.90
39099;DHT22;24844;52.380;7.018;2022-10-31T03:43:07;12.80;99.90
39099;DHT22;24844;52.380;7.018;2022-10-31T03:45:35;12.80;99.90
39099;DHT22;24844;52.380;7.018;2022-10-31T03:48:04;12.70;99.90
39099;DHT22;24844;52.380;7.018;2022-10-31T03:50:42;12.50;99.90
39099;DHT22;24844;52.380;7.018;2022-10-31T03:53:44;12.60;99.90
39099;DHT22;24844;52.380;7.018;2022-10-31T03:56:07;12.70;99.90
39099;DHT22;24844;52.380;7.018;2022-10-31T03:59:07;12.60;99.90
39099;DHT22;24844;52.380;7.018;2022-10-31T04:01:24;12.50;99.90
39099;DHT22;24844;52.380;7.018;2022-10-31T04:03:51;12.60;99.90
39099;DHT22;24844;52.380;7.018;2022-10-31T04:06:17;12.60;99.90
39099;DHT22;24844;52.380;7.018;2022-10-31T04:08:45;12.60;99.90
39099;DHT22;24844;52.380;7.018;2022-10-31T04:11:11;12.40;99.90
39099;DHT22;24844;52.380;7.018;2022-10-31T04:13:38;12.10;99.90
39099;DHT22;24844;52.380;7.018;2022-10-31T04:16:05;12.10;99.90
39099;DHT22;24844;52.380;7.018;2022-10-31T04:18:30;12.10;99.90
39099;DHT22;24844;52.380;7.018;2022-10-31T04:21:06;11.90;99.90
39099;DHT22;24844;52.380;7.018;2022-10-31T04:23:32;11.80;99.90
39099;DHT22;24844;52.380;7.018;2022-10-31T04:25:58;11.90;99.90
39099;DHT22;24844;52.380;7.018;2022-10-31T04:28:23;11.90;99.90
39099;DHT22;24844;52.380;7.018;2022-10-31T04:30:49;11.90;99.90
39099;DHT22;24844;52.380;7.018;2022-10-31T04:33:15;11.90;99.90
39099;DHT22;24844;52.380;7.018;2022-10-31T04:35:40;12.00;99.90
39099;DHT22;24844;52.380;7.018;2022-10-31T04:38:06;12.10;99.90
39099;DHT22;24844;52.380;7.018;2022-10-31T04:40:31;12.10;99.90
39099;DHT22;24844;52.380;7.018;2022-10-31T04:42:56;12.00;99.90
39099;DHT22;24844;52.380;7.018;2022-10-31T04:45:22;12.00;99.90
39099;DHT22;24844;52.380;7.018;2022-10-31T04:47:47;12.00;99.90
39099;DHT22;24844;52.380;7.018;2022-10-31T04:50:13;11.90;99.90
39099;DHT22;24844;52.380;7.018;2022-10-31T04:52:39;11.80;99.90
39099;DHT22;24844;52.380;7.018;2022-10-31T04:55:04;11.60;99.90
39099;DHT22;24844;52.380;7.018;2022-10-31T04:57:30;11.60;99.90
39099;DHT22;24844;52.380;7.018;2022-10-31T04:59:55;11.50;99.90
39099;DHT22;24844;52.380;7.018;2022-10-31T05:02:21;11.40;99.90
39099;DHT22;24844;52.380;7.018;2022-10-31T05:04:46;11.40;99.90
39099;DHT22;24844;52.380;7.018;2022-10-31T05:07:12;11.50;99.90
39099;DHT22;24844;52.380;7.018;2022-10-31T05:09:37;11.40;99.90
39099;DHT22;24844;52.380;7.018;2022-10-31T05:12:03;11.50;99.90
39099;DHT22;24844;52.380;7.018;2022-10-31T05:14:28;11.60;99.90
39099;DHT22;24844;52.380;7.018;2022-10-31T05:16:54;11.70;99.90
39099;DHT22;24844;52.380;7.018;2022-10-31T05:19:19;11.70;99.90
39099;DHT22;24844;52.380;7.018;2022-10-31T05:21:45;11.70;99.90
39099;DHT22;24844;52.380;7.018;2022-10-31T05:24:10;11.60;99.90
39099;DHT22;24844;52.380;7.018;2022-10-31T05:26:35;11.60;99.90
39099;DHT22;24844;52.380;7.018;2022-10-31T05:29:01;11.60;99.90
39099;DHT22;24844;52.380;7.018;2022-10-31T05:31:27;11.60;99.90
39099;DHT22;24844;52.380;7.018;2022-10-31T05:33:52;11.50;99.90
39099;DHT22;24844;52.380;7.018;2022-10-31T05:36:17;11.50;99.90
39099;DHT22;24844;52.380;7.018;2022-10-31T05:38:43;11.40;99.90
39099;DHT22;24844;52.380;7.018;2022-10-31T05:41:08;11.20;99.90
39099;DHT22;24844;52.380;7.018;2022-10-31T05:43:35;11.00;99.90
39099;DHT22;24844;52.380;7.018;2022-10-31T05:46:00;11.00;99.90
39099;DHT22;24844;52.380;7.018;2022-10-31T05:48:25;11.10;99.90
39099;DHT22;24844;52.380;7.018;2022-10-31T05:50:51;11.10;99.90
39099;DHT22;24844;52.380;7.018;2022-10-31T05:53:17;11.20;99.90
39099;DHT22;24844;52.380;7.018;2022-10-31T05:55:42;11.20;99.90
39099;DHT22;24844;52.380;7.018;2022-10-31T05:58:08;11.00;99.90
39099;DHT22;24844;52.380;7.018;2022-10-31T06:00:34;11.00;99.90
39099;DHT22;24844;52.380;7.018;2022-10-31T06:03:00;11.00;99.90
39099;DHT22;24844;52.380;7.018;2022-10-31T06:05:27;10.90;99.90
39099;DHT22;24844;52.380;7.018;2022-10-31T06:07:52;10.90;99.90
39099;DHT22;24844;52.380;7.018;2022-10-31T06:10:18;10.80;99.90
39099;DHT22;24844;52.380;7.018;2022-10-31T06:12:46;10.80;99.90
39099;DHT22;24844;52.380;7.018;2022-10-31T06:15:12;10.70;99.90
39099;DHT22;24844;52.380;7.018;2022-10-31T06:17:37;10.40;99.90
39099;DHT22;24844;52.380;7.018;2022-10-31T06:20:03;10.10;99.90
39099;DHT22;24844;52.380;7.018;2022-10-31T06:22:29;10.00;99.90
39099;DHT22;24844;52.380;7.018;2022-10-31T06:24:54;10.10;99.90
39099;DHT22;24844;52.380;7.018;2022-10-31T06:27:20;10.10;99.90
39099;DHT22;24844;52.380;7.018;2022-10-31T06:29:45;10.10;99.90
39099;DHT22;24844;52.380;7.018;2022-10-31T06:32:11;10.20;99.90
39099;DHT22;24844;52.380;7.018;2022-10-31T06:34:37;10.40;99.90
39099;DHT22;24844;52.380;7.018;2022-10-31T06:37:02;10.50;99.90
39099;DHT22;24844;52.380;7.018;2022-10-31T06:39:28;10.60;99.90
39099;DHT22;24844;52.380;7.018;2022-10-31T06:41:53;10.70;99.90
39099;DHT22;24844;52.380;7.018;2022-10-31T06:44:19;10.80;99.90
39099;DHT22;24844;52.380;7.018;2022-10-31T06:46:46;10.90;99.90
39099;DHT22;24844;52.380;7.018;2022-10-31T06:49:11;11.00;99.90
39099;DHT22;24844;52.380;7.018;2022-10-31T06:51:37;10.90;99.90
39099;DHT22;24844;52.380;7.018;2022-10-31T06:54:02;10.90;99.90
39099;DHT22;24844;52.380;7.018;2022-10-31T06:56:28;10.90;99.90
39099;DHT22;24844;52.380;7.018;2022-10-31T06:58:53;11.10;99.90
39099;DHT22;24844;52.380;7.018;2022-10-31T07:01:18;11.10;99.90
39099;DHT22;24844;52.380;7.018;2022-10-31T07:03:44;11.00;99.90
39099;DHT22;24844;52.380;7.018;2022-10-31T07:06:09;11.00;99.90
39099;DHT22;24844;52.380;7.018;2022-10-31T07:08:35;11.10;99.90
39099;DHT22;24844;52.380;7.018;2022-10-31T07:11:00;11.20;99.90
39099;DHT22;24844;52.380;7.018;2022-10-31T07:13:26;11.40;99.90
39099;DHT22;24844;52.380;7.018;2022-10-31T07:15:53;11.60;99.90
39099;DHT22;24844;52.380;7.018;2022-10-31T07:18:19;11.70;99.90
39099;DHT22;24844;52.380;7.018;2022-10-31T07:20:45;11.80;99.90
39099;DHT22;24844;52.380;7.018;2022-10-31T07:23:10;11.80;99.90
39099;DHT22;24844;52.380;7.018;2022-10-31T07:25:36;11.80;99.90
39099;DHT22;24844;52.380;7.018;2022-10-31T07:28:02;11.70;99.90
39099;DHT22;24844;52.380;7.018;2022-10-31T07:30:28;11.70;99.90
39099;DHT22;24844;52.380;7.018;2022-10-31T07:32:53;11.60;99.90
39099;DHT22;24844;52.380;7.018;2022-10-31T07:35:25;11.70;99.90
39099;DHT22;24844;52.380;7.018;2022-10-31T07:37:51;11.80;99.90
39099;DHT22;24844;52.380;7.018;2022-10-31T07:40:17;12.00;99.90
39099;DHT22;24844;52.380;7.018;2022-10-31T07:42:47;12.20;99.90
39099;DHT22;24844;52.380;7.018;2022-10-31T07:45:15;12.20;99.90
39099;DHT22;24844;52.380;7.018;2022-10-31T07:47:44;12.30;99.90
39099;DHT22;24844;52.380;7.018;2022-10-31T07:50:11;12.10;99.90
39099;DHT22;24844;52.380;7.018;2022-10-31T07:52:37;12.20;99.90
39099;DHT22;24844;52.380;7.018;2022-10-31T07:55:03;12.20;99.90
39099;DHT22;24844;52.380;7.018;2022-10-31T07:57:29;12.20;99.90
39099;DHT22;24844;52.380;7.018;2022-10-31T07:59:54;12.10;99.90
39099;DHT22;24844;52.380;7.018;2022-10-31T08:02:20;12.10;99.90
39099;DHT22;24844;52.380;7.018;2022-10-31T08:04:45;12.10;99.90
39099;DHT22;24844;52.380;7.018;2022-10-31T08:07:11;12.20;99.90
39099;DHT22;24844;52.380;7.018;2022-10-31T08:09:36;12.30;99.90
39099;DHT22;24844;52.380;7.018;2022-10-31T08:12:02;12.40;99.90
39099;DHT22;24844;52.380;7.018;2022-10-31T08:14:27;12.50;99.90
39099;DHT22;24844;52.380;7.018;2022-10-31T08:16:53;12.90;99.90
39099;DHT22;24844;52.380;7.018;2022-10-31T08:19:19;13.20;99.90
39099;DHT22;24844;52.380;7.018;2022-10-31T08:21:44;13.50;99.90
39099;DHT22;24844;52.380;7.018;2022-10-31T08:24:10;13.80;99.90
39099;DHT22;24844;52.380;7.018;2022-10-31T08:26:35;14.10;99.90
39099;DHT22;24844;52.380;7.018;2022-10-31T08:29:01;14.60;99.90
39099;DHT22;24844;52.380;7.018;2022-10-31T08:31:27;15.50;99.90
39099;DHT22;24844;52.380;7.018;2022-10-31T08:33:53;16.30;99.90
39099;DHT22;24844;52.380;7.018;2022-10-31T08:36:19;16.60;99.90
39099;DHT22;24844;52.380;7.018;2022-10-31T08:38:46;16.80;99.90
39099;DHT22;24844;52.380;7.018;2022-10-31T08:41:11;16.60;99.90
39099;DHT22;24844;52.380;7.018;2022-10-31T08:43:36;16.20;99.90
39099;DHT22;24844;52.380;7.018;2022-10-31T08:46:02;15.70;99.90
39099;DHT22;24844;52.380;7.018;2022-10-31T08:48:28;15.40;99.90
39099;DHT22;24844;52.380;7.018;2022-10-31T08:50:56;15.10;99.90
39099;DHT22;24844;52.380;7.018;2022-10-31T08:53:21;14.70;99.90
39099;DHT22;24844;52.380;7.018;2022-10-31T08:55:47;14.60;99.90
39099;DHT22;24844;52.380;7.018;2022-10-31T08:58:14;14.20;99.90
39099;DHT22;24844;52.380;7.018;2022-10-31T09:00:40;14.10;99.90
39099;DHT22;24844;52.380;7.018;2022-10-31T09:03:06;14.30;99.90
39099;DHT22;24844;52.380;7.018;2022-10-31T09:05:33;14.40;99.90
39099;DHT22;24844;52.380;7.018;2022-10-31T09:07:59;14.40;99.90
39099;DHT22;24844;52.380;7.018;2022-10-31T09:10:25;14.60;99.90
39099;DHT22;24844;52.380;7.018;2022-10-31T09:13:10;14.60;99.90
39099;DHT22;24844;52.380;7.018;2022-10-31T09:15:37;14.70;99.90
39099;DHT22;24844;52.380;7.018;2022-10-31T09:18:03;14.80;99.90
39099;DHT22;24844;52.380;7.018;2022-10-31T09:20:30;14.90;99.90
39099;DHT22;24844;52.380;7.018;2022-10-31T09:22:59;15.30;99.90
39099;DHT22;24844;52.380;7.018;2022-10-31T09:25:25;15.90;99.90
39099;DHT22;24844;52.380;7.018;2022-10-31T09:27:51;16.00;99.90
39099;DHT22;24844;52.380;7.018;2022-10-31T09:30:20;16.30;99.90
39099;DHT22;24844;52.380;7.018;2022-10-31T09:32:45;17.10;99.90
39099;DHT22;24844;52.380;7.018;2022-10-31T09:35:11;16.90;99.90
39099;DHT22;24844;52.380;7.018;2022-10-31T09:37:36;17.00;99.90
39099;DHT22;24844;52.380;7.018;2022-10-31T09:40:02;16.80;99.90
39099;DHT22;24844;52.380;7.018;2022-10-31T09:42:49;16.80;99.90
39099;DHT22;24844;52.380;7.018;2022-10-31T09:50:35;16.10;99.90
39099;DHT22;24844;52.380;7.018;2022-10-31T09:53:02;16.20;99.90
39099;DHT22;24844;52.380;7.018;2022-10-31T09:55:35;16.00;99.90
39099;DHT22;24844;52.380;7.018;2022-10-31T09:58:02;16.00;99.90
39099;DHT22;24844;52.380;7.018;2022-10-31T10:00:28;16.30;99.90
39099;DHT22;24844;52.380;7.018;2022-10-31T10:03:04;16.60;99.90
39099;DHT22;24844;52.380;7.018;2022-10-31T10:05:32;16.90;99.90
39099;DHT22;24844;52.380;7.018;2022-10-31T10:11:14;17.20;99.90
39099;DHT22;24844;52.380;7.018;2022-10-31T10:13:24;17.30;99.90
39099;DHT22;24844;52.380;7.018;2022-10-31T10:21:28;18.00;99.90
39099;DHT22;24844;52.380;7.018;2022-10-31T10:26:40;20.10;99.90
39099;DHT22;24844;52.380;7.018;2022-10-31T10:31:35;21.00;99.90
39099;DHT22;24844;52.380;7.018;2022-10-31T10:34:06;21.40;99.90
39099;DHT22;24844;52.380;7.018;2022-10-31T10:39:08;23.00;99.70
39099;DHT22;24844;52.380;7.018;2022-10-31T10:41:34;23.10;97.70
39099;DHT22;24844;52.380;7.018;2022-10-31T10:43:59;22.50;98.60
39099;DHT22;24844;52.380;7.018;2022-10-31T10:46:47;21.70;98.90
39099;DHT22;24844;52.380;7.018;2022-10-31T10:49:51;21.10;99.30
39099;DHT22;24844;52.380;7.018;2022-10-31T10:52:21;20.80;99.60
39099;DHT22;24844;52.380;7.018;2022-10-31T11:02:56;19.30;99.90
39099;DHT22;24844;52.380;7.018;2022-10-31T11:05:28;18.70;99.90
39099;DHT22;24844;52.380;7.018;2022-10-31T11:07:55;18.70;99.90
39099;DHT22;24844;52.380;7.018;2022-10-31T11:10:21;18.50;99.90
39099;DHT22;24844;52.380;7.018;2022-10-31T11:12:58;18.20;99.90
39099;DHT22;24844;52.380;7.018;2022-10-31T11:15:25;18.00;99.90
39099;DHT22;24844;52.380;7.018;2022-10-31T11:17:52;17.80;99.90
39099;DHT22;24844;52.380;7.018;2022-10-31T11:22:44;17.80;99.90
39099;DHT22;24844;52.380;7.018;2022-10-31T11:27:45;17.50;99.90
39099;DHT22;24844;52.380;7.018;2022-10-31T11:30:12;17.50;99.90
39099;DHT22;24844;52.380;7.018;2022-10-31T11:32:39;17.50;99.90
39099;DHT22;24844;52.380;7.018;2022-10-31T11:35:09;17.50;99.90
39099;DHT22;24844;52.380;7.018;2022-10-31T11:37:39;17.60;99.90
39099;DHT22;24844;52.380;7.018;2022-10-31T11:40:06;17.60;99.90
39099;DHT22;24844;52.380;7.018;2022-10-31T11:42:36;17.70;99.90
39099;DHT22;24844;52.380;7.018;2022-10-31T11:45:06;17.60;99.90
39099;DHT22;24844;52.380;7.018;2022-10-31T11:47:33;17.70;99.90
39099;DHT22;24844;52.380;7.018;2022-10-31T11:50:00;18.00;99.90
39099;DHT22;24844;52.380;7.018;2022-10-31T11:52:28;18.20;99.90
39099;DHT22;24844;52.380;7.018;2022-10-31T11:57:47;18.20;99.90
39099;DHT22;24844;52.380;7.018;2022-10-31T12:02:45;18.00;99.90
39099;DHT22;24844;52.380;7.018;2022-10-31T12:05:16;18.00;99.90
39099;DHT22;24844;52.380;7.018;2022-10-31T12:07:43;18.10;99.90
39099;DHT22;24844;52.380;7.018;2022-10-31T12:10:11;18.10;99.90
39099;DHT22;24844;52.380;7.018;2022-10-31T12:15:38;18.60;99.90
39099;DHT22;24844;52.380;7.018;2022-10-31T12:20:48;18.90;99.90
39099;DHT22;24844;52.380;7.018;2022-10-31T12:26:02;18.70;99.90
39099;DHT22;24844;52.380;7.018;2022-10-31T12:28:45;18.90;99.90
39099;DHT22;24844;52.380;7.018;2022-10-31T12:37:08;18.90;99.90
39099;DHT22;24844;52.380;7.018;2022-10-31T12:54:24;18.20;99.90
39099;DHT22;24844;52.380;7.018;2022-10-31T12:59:24;18.10;99.90
39099;DHT22;24844;52.380;7.018;2022-10-31T13:01:58;18.30;99.90
39099;DHT22;24844;52.380;7.018;2022-10-31T13:04:36;18.90;99.90
39099;DHT22;24844;52.380;7.018;2022-10-31T13:07:04;18.80;99.90
39099;DHT22;24844;52.380;7.018;2022-10-31T13:09:34;18.60;99.90
39099;DHT22;24844;52.380;7.018;2022-10-31T13:12:02;18.20;99.90
39099;DHT22;24844;52.380;7.018;2022-10-31T13:14:32;18.20;99.90
39099;DHT22;24844;52.380;7.018;2022-10-31T13:16:58;18.60;99.90
39099;DHT22;24844;52.380;7.018;2022-10-31T13:19:29;18.50;99.90
39099;DHT22;24844;52.380;7.018;2022-10-31T13:22:02;18.30;99.90
39099;DHT22;24844;52.380;7.018;2022-10-31T13:24:34;18.30;99.90
39099;DHT22;24844;52.380;7.018;2022-10-31T13:27:01;18.00;99.90
39099;DHT22;24844;52.380;7.018;2022-10-31T13:29:29;17.60;99.90
39099;DHT22;24844;52.380;7.018;2022-10-31T13:31:56;17.50;99.90
39099;DHT22;24844;52.380;7.018;2022-10-31T13:34:32;17.40;99.90
39099;DHT22;24844;52.380;7.018;2022-10-31T13:37:07;17.40;99.90
39099;DHT22;24844;52.380;7.018;2022-10-31T13:39:44;17.20;99.90
39099;DHT22;24844;52.380;7.018;2022-10-31T13:44:40;17.20;99.90
39099;DHT22;24844;52.380;7.018;2022-10-31T13:50:18;17.40;99.90
39099;DHT22;24844;52.380;7.018;2022-10-31T13:52:44;17.70;99.90
39099;DHT22;24844;52.380;7.018;2022-10-31T13:57:54;17.60;99.90
39099;DHT22;24844;52.380;7.018;2022-10-31T14:02:49;17.20;99.90
39099;DHT22;24844;52.380;7.018;2022-10-31T14:05:19;17.20;99.90
39099;DHT22;24844;52.380;7.018;2022-10-31T14:07:46;17.30;99.90
39099;DHT22;24844;52.380;7.018;2022-10-31T14:10:25;17.30;99.90
39099;DHT22;24844;52.380;7.018;2022-10-31T14:12:52;17.20;99.90
39099;DHT22;24844;52.380;7.018;2022-10-31T14:15:19;17.50;99.90
39099;DHT22;24844;52.380;7.018;2022-10-31T14:17:47;17.40;99.90
39099;DHT22;24844;52.380;7.018;2022-10-31T14:22:39;17.30;99.90
39099;DHT22;24844;52.380;7.018;2022-10-31T14:27:49;17.10;99.90
39099;DHT22;24844;52.380;7.018;2022-10-31T14:30:16;17.10;99.90
39099;DHT22;24844;52.380;7.018;2022-10-31T14:32:42;17.10;99.90
39099;DHT22;24844;52.380;7.018;2022-10-31T14:35:09;17.20;99.90
39099;DHT22;24844;52.380;7.018;2022-10-31T14:37:58;17.30;99.90
39099;DHT22;24844;52.380;7.018;2022-10-31T14:45:46;17.20;99.90
39099;DHT22;24844;52.380;7.018;2022-10-31T14:50:58;17.50;99.90
39099;DHT22;24844;52.380;7.018;2022-10-31T14:53:31;17.40;99.90
39099;DHT22;24844;52.380;7.018;2022-10-31T14:55:58;17.50;99.90
39099;DHT22;24844;52.380;7.018;2022-10-31T15:00:54;17.50;99.90
39099;DHT22;24844;52.380;7.018;2022-10-31T15:03:22;17.30;99.90
39099;DHT22;24844;52.380;7.018;2022-10-31T15:05:59;17.30;99.90
39099;DHT22;24844;52.380;7.018;2022-10-31T15:08:32;17.50;99.90
39099;DHT22;24844;52.380;7.018;2022-10-31T15:11:02;17.50;99.90
39099;DHT22;24844;52.380;7.018;2022-10-31T15:13:27;17.50;99.90
39099;DHT22;24844;52.380;7.018;2022-10-31T15:15:54;17.30;99.90
39099;DHT22;24844;52.380;7.018;2022-10-31T15:18:26;17.40;99.90
39099;DHT22;24844;52.380;7.018;2022-10-31T15:20:52;17.20;99.90
39099;DHT22;24844;52.380;7.018;2022-10-31T15:25:46;17.20;99.90
39099;DHT22;24844;52.380;7.018;2022-10-31T15:28:16;17.20;99.90
39099;DHT22;24844;52.380;7.018;2022-10-31T15:30:49;17.10;99.90
39099;DHT22;24844;52.380;7.018;2022-10-31T15:33:18;17.20;99.90
39099;DHT22;24844;52.380;7.018;2022-10-31T15:35:53;17.20;99.90
39099;DHT22;24844;52.380;7.018;2022-10-31T15:38:19;17.00;99.90
39099;DHT22;24844;52.380;7.018;2022-10-31T15:40:50;17.00;99.90
39099;DHT22;24844;52.380;7.018;2022-10-31T15:43:16;17.00;99.90
39099;DHT22;24844;52.380;7.018;2022-10-31T15:45:42;16.90;99.90
39099;DHT22;24844;52.380;7.018;2022-10-31T15:48:17;16.70;99.90
39099;DHT22;24844;52.380;7.018;2022-10-31T15:50:54;16.70;99.90
39099;DHT22;24844;52.380;7.018;2022-10-31T15:53:33;16.80;99.90
39099;DHT22;24844;52.380;7.018;2022-10-31T15:56:02;16.70;99.90
39099;DHT22;24844;52.380;7.018;2022-10-31T15:58:27;16.90;99.90
39099;DHT22;24844;52.380;7.018;2022-10-31T16:01:04;16.90;99.90
39099;DHT22;24844;52.380;7.018;2022-10-31T16:03:30;17.10;99.90
39099;DHT22;24844;52.380;7.018;2022-10-31T16:05:57;17.00;99.90
39099;DHT22;24844;52.380;7.018;2022-10-31T16:10:52;17.20;99.90
39099;DHT22;24844;52.380;7.018;2022-10-31T16:13:18;16.80;99.90
39099;DHT22;24844;52.380;7.018;2022-10-31T16:15:48;16.80;99.90
39099;DHT22;24844;52.380;7.018;2022-10-31T16:18:14;16.60;99.90
39099;DHT22;24844;52.380;7.018;2022-10-31T16:20:40;16.50;99.90
39099;DHT22;24844;52.380;7.018;2022-10-31T16:23:05;16.50;99.90
39099;DHT22;24844;52.380;7.018;2022-10-31T16:25:35;16.60;99.90
39099;DHT22;24844;52.380;7.018;2022-10-31T16:28:16;16.90;99.90
39099;DHT22;24844;52.380;7.018;2022-10-31T16:30:42;17.00;99.90
39099;DHT22;24844;52.380;7.018;2022-10-31T16:33:28;17.00;99.90
39099;DHT22;24844;52.380;7.018;2022-10-31T16:35:57;17.00;99.90
39099;DHT22;24844;52.380;7.018;2022-10-31T16:38:23;17.00;99.90
39099;DHT22;24844;52.380;7.018;2022-10-31T16:40:49;17.00;99.90
39099;DHT22;24844;52.380;7.018;2022-10-31T16:43:15;17.00;99.90
39099;DHT22;24844;52.380;7.018;2022-10-31T16:45:43;16.90;99.90
39099;DHT22;24844;52.380;7.018;2022-10-31T16:48:20;16.80;99.90
39099;DHT22;24844;52.380;7.018;2022-10-31T16:50:48;16.70;99.90
39099;DHT22;24844;52.380;7.018;2022-10-31T16:53:14;16.90;99.90
39099;DHT22;24844;52.380;7.018;2022-10-31T16:55:46;16.90;99.90
39099;DHT22;24844;52.380;7.018;2022-10-31T16:58:14;16.90;99.90
39099;DHT22;24844;52.380;7.018;2022-10-31T17:00:40;16.90;99.90
39099;DHT22;24844;52.380;7.018;2022-10-31T17:03:07;16.60;99.90
39099;DHT22;24844;52.380;7.018;2022-10-31T17:05:33;16.70;99.90
39099;DHT22;24844;52.380;7.018;2022-10-31T17:07:59;16.70;99.90
39099;DHT22;24844;52.380;7.018;2022-10-31T17:10:25;16.60;99.90
39099;DHT22;24844;52.380;7.018;2022-10-31T17:12:51;16.40;99.90
39099;DHT22;24844;52.380;7.018;2022-10-31T17:15:22;16.40;99.90
39099;DHT22;24844;52.380;7.018;2022-10-31T17:17:48;16.50;99.90
39099;DHT22;24844;52.380;7.018;2022-10-31T17:20:27;16.40;99.90
39099;DHT22;24844;52.380;7.018;2022-10-31T17:22:53;16.20;99.90
39099;DHT22;24844;52.380;7.018;2022-10-31T17:25:20;16.10;99.90
39099;DHT22;24844;52.380;7.018;2022-10-31T17:27:47;16.10;99.90
39099;DHT22;24844;52.380;7.018;2022-10-31T17:30:13;16.00;99.90
39099;DHT22;24844;52.380;7.018;2022-10-31T17:32:42;16.30;99.90
39099;DHT22;24844;52.380;7.018;2022-10-31T17:35:08;16.30;99.90